sensor_id;sensor_type;location;lat;lon;timestamp;P1;durP1;ratioP1;P2;durP2;ratioP2
579;SDS011;276;48.392;9.950;2023-11-19T00:02:01;5.57;;;5.17;;
579;SDS011;276;48.392;9.950;2023-11-19T00:04:27;6.40;;;5.80;;
579;SDS011;276;48.392;9.950;2023-11-19T00:06:52;4.80;;;4.50;;
579;SDS011;276;48.392;9.950;2023-11-19T00:09:18;6.17;;;5.67;;
579;SDS011;276;48.392;9.950;2023-11-19T00:11:43;6.17;;;5.67;;
579;SDS011;276;48.392;9.950;2023-11-19T00:14:09;5.37;;;4.97;;
579;SDS011;276;48.392;9.950;2023-11-19T00:16:35;5.83;;;5.33;;
579;SDS011;276;48.392;9.950;2023-11-19T00:19:01;6.43;;;5.83;;
579;SDS011;276;48.392;9.950;2023-11-19T00:21:29;5.40;;;4.90;;
579;SDS011;276;48.392;9.950;2023-11-19T00:23:58;6.10;;;5.60;;
579;SDS011;276;48.392;9.950;2023-11-19T00:26:23;5.50;;;4.73;;
579;SDS011;276;48.392;9.950;2023-11-19T00:28:49;5.57;;;5.03;;
579;SDS011;276;48.392;9.950;2023-11-19T00:31:17;5.40;;;5.00;;
579;SDS011;276;48.392;9.950;2023-11-19T00:33:43;5.00;;;4.70;;
579;SDS011;276;48.392;9.950;2023-11-19T00:36:09;6.17;;;5.67;;
579;SDS011;276;48.392;9.950;2023-11-19T00:38:34;5.03;;;4.63;;
579;SDS011;276;48.392;9.950;2023-11-19T00:41:00;5.00;;;4.60;;
579;SDS011;276;48.392;9.950;2023-11-19T00:43:28;5.93;;;5.43;;
579;SDS011;276;48.392;9.950;2023-11-19T00:45:54;5.57;;;4.97;;
579;SDS011;276;48.392;9.950;2023-11-19T00:48:22;6.50;;;5.53;;
579;SDS011;276;48.392;9.950;2023-11-19T00:50:50;5.93;;;5.43;;
579;SDS011;276;48.392;9.950;2023-11-19T00:53:16;5.67;;;5.23;;
579;SDS011;276;48.392;9.950;2023-11-19T00:55:41;5.97;;;5.47;;
579;SDS011;276;48.392;9.950;2023-11-19T00:58:07;6.80;;;6.30;;
579;SDS011;276;48.392;9.950;2023-11-19T01:00:32;6.70;;;6.10;;
579;SDS011;276;48.392;9.950;2023-11-19T01:02:59;6.20;;;5.70;;
579;SDS011;276;48.392;9.950;2023-11-19T01:05:25;6.80;;;6.30;;
579;SDS011;276;48.392;9.950;2023-11-19T01:07:51;6.00;;;5.50;;
579;SDS011;276;48.392;9.950;2023-11-19T01:10:18;6.73;;;6.13;;
579;SDS011;276;48.392;9.950;2023-11-19T01:12:44;6.20;;;5.70;;
579;SDS011;276;48.392;9.950;2023-11-19T01:15:10;5.90;;;5.50;;
579;SDS011;276;48.392;9.950;2023-11-19T01:17:38;7.10;;;6.40;;
579;SDS011;276;48.392;9.950;2023-11-19T01:20:04;6.60;;;6.10;;
579;SDS011;276;48.392;9.950;2023-11-19T01:22:31;6.10;;;5.60;;
579;SDS011;276;48.392;9.950;2023-11-19T01:24:57;6.93;;;6.43;;
579;SDS011;276;48.392;9.950;2023-11-19T01:27:26;7.10;;;6.40;;
579;SDS011;276;48.392;9.950;2023-11-19T01:29:51;5.70;;;5.20;;
579;SDS011;276;48.392;9.950;2023-11-19T01:32:17;6.80;;;6.30;;
579;SDS011;276;48.392;9.950;2023-11-19T01:34:42;5.50;;;5.10;;
579;SDS011;276;48.392;9.950;2023-11-19T01:37:08;6.57;;;6.07;;
579;SDS011;276;48.392;9.950;2023-11-19T01:39:40;6.10;;;5.60;;
579;SDS011;276;48.392;9.950;2023-11-19T01:42:11;6.37;;;5.60;;
579;SDS011;276;48.392;9.950;2023-11-19T01:44:40;6.17;;;5.77;;
579;SDS011;276;48.392;9.950;2023-11-19T01:47:22;6.30;;;5.80;;
579;SDS011;276;48.392;9.950;2023-11-19T01:49:47;6.60;;;6.03;;
579;SDS011;276;48.392;9.950;2023-11-19T01:52:15;6.60;;;6.00;;
579;SDS011;276;48.392;9.950;2023-11-19T01:54:41;6.30;;;5.80;;
579;SDS011;276;48.392;9.950;2023-11-19T01:57:07;8.93;;;6.70;;
579;SDS011;276;48.392;9.950;2023-11-19T01:59:34;5.17;;;4.77;;
579;SDS011;276;48.392;9.950;2023-11-19T02:02:00;5.60;;;5.20;;
579;SDS011;276;48.392;9.950;2023-11-19T02:04:25;5.40;;;5.03;;
579;SDS011;276;48.392;9.950;2023-11-19T02:06:51;6.37;;;5.87;;
579;SDS011;276;48.392;9.950;2023-11-19T02:09:23;6.67;;;6.07;;
579;SDS011;276;48.392;9.950;2023-11-19T02:11:51;5.97;;;5.57;;
579;SDS011;276;48.392;9.950;2023-11-19T02:14:21;5.60;;;5.20;;
579;SDS011;276;48.392;9.950;2023-11-19T02:16:53;5.27;;;4.87;;
579;SDS011;276;48.392;9.950;2023-11-19T02:19:19;5.40;;;5.00;;
579;SDS011;276;48.392;9.950;2023-11-19T02:21:47;6.10;;;5.60;;
579;SDS011;276;48.392;9.950;2023-11-19T02:24:18;6.63;;;6.13;;
579;SDS011;276;48.392;9.950;2023-11-19T02:27:08;5.63;;;5.23;;
579;SDS011;276;48.392;9.950;2023-11-19T02:29:43;4.83;;;4.53;;
579;SDS011;276;48.392;9.950;2023-11-19T02:32:08;6.40;;;6.00;;
579;SDS011;276;48.392;9.950;2023-11-19T02:34:38;5.30;;;4.90;;
579;SDS011;276;48.392;9.950;2023-11-19T02:37:06;5.87;;;5.47;;
579;SDS011;276;48.392;9.950;2023-11-19T02:39:34;6.00;;;5.60;;
579;SDS011;276;48.392;9.950;2023-11-19T02:42:01;5.90;;;5.40;;
579;SDS011;276;48.392;9.950;2023-11-19T02:44:30;4.97;;;4.57;;
579;SDS011;276;48.392;9.950;2023-11-19T02:46:57;5.77;;;5.27;;
579;SDS011;276;48.392;9.950;2023-11-19T02:49:24;5.17;;;4.77;;
579;SDS011;276;48.392;9.950;2023-11-19T02:51:50;5.17;;;4.87;;
579;SDS011;276;48.392;9.950;2023-11-19T02:54:16;5.00;;;4.50;;
579;SDS011;276;48.392;9.950;2023-11-19T02:56:44;4.77;;;4.37;;
579;SDS011;276;48.392;9.950;2023-11-19T02:59:22;5.33;;;4.93;;
579;SDS011;276;48.392;9.950;2023-11-19T03:01:53;4.73;;;4.33;;
579;SDS011;276;48.392;9.950;2023-11-19T03:04:20;4.93;;;4.63;;
579;SDS011;276;48.392;9.950;2023-11-19T03:06:45;5.50;;;5.10;;
579;SDS011;276;48.392;9.950;2023-11-19T03:09:13;4.80;;;4.47;;
579;SDS011;276;48.392;9.950;2023-11-19T03:11:44;5.30;;;4.90;;
579;SDS011;276;48.392;9.950;2023-11-19T03:14:09;5.37;;;4.97;;
579;SDS011;276;48.392;9.950;2023-11-19T03:16:35;4.20;;;3.80;;
579;SDS011;276;48.392;9.950;2023-11-19T03:19:03;4.13;;;3.83;;
579;SDS011;276;48.392;9.950;2023-11-19T03:21:29;4.40;;;4.10;;
579;SDS011;276;48.392;9.950;2023-11-19T03:23:56;4.03;;;3.73;;
579;SDS011;276;48.392;9.950;2023-11-19T03:26:23;3.70;;;3.40;;
579;SDS011;276;48.392;9.950;2023-11-19T03:28:51;3.63;;;3.43;;
579;SDS011;276;48.392;9.950;2023-11-19T03:31:20;5.40;;;4.67;;
579;SDS011;276;48.392;9.950;2023-11-19T03:33:45;4.53;;;4.23;;
579;SDS011;276;48.392;9.950;2023-11-19T03:36:13;4.10;;;3.80;;
579;SDS011;276;48.392;9.950;2023-11-19T03:38:41;5.03;;;3.80;;
579;SDS011;276;48.392;9.950;2023-11-19T03:41:11;4.53;;;4.23;;
579;SDS011;276;48.392;9.950;2023-11-19T03:43:42;4.23;;;3.90;;
579;SDS011;276;48.392;9.950;2023-11-19T03:46:20;3.30;;;3.10;;
579;SDS011;276;48.392;9.950;2023-11-19T03:48:46;4.37;;;4.07;;
579;SDS011;276;48.392;9.950;2023-11-19T03:51:15;4.20;;;3.90;;
579;SDS011;276;48.392;9.950;2023-11-19T03:53:43;3.83;;;3.53;;
579;SDS011;276;48.392;9.950;2023-11-19T03:56:11;4.60;;;4.30;;
579;SDS011;276;48.392;9.950;2023-11-19T03:58:42;4.20;;;3.90;;
579;SDS011;276;48.392;9.950;2023-11-19T04:01:13;3.50;;;3.30;;
579;SDS011;276;48.392;9.950;2023-11-19T04:03:39;3.80;;;3.50;;
579;SDS011;276;48.392;9.950;2023-11-19T04:06:07;3.57;;;3.37;;
579;SDS011;276;48.392;9.950;2023-11-19T04:08:32;3.73;;;3.43;;
579;SDS011;276;48.392;9.950;2023-11-19T04:11:03;4.70;;;4.30;;
579;SDS011;276;48.392;9.950;2023-11-19T04:13:37;3.73;;;3.43;;
579;SDS011;276;48.392;9.950;2023-11-19T04:16:03;4.57;;;4.17;;
579;SDS011;276;48.392;9.950;2023-11-19T04:18:29;3.53;;;3.33;;
579;SDS011;276;48.392;9.950;2023-11-19T04:20:57;3.97;;;3.67;;
579;SDS011;276;48.392;9.950;2023-11-19T04:23:25;4.10;;;3.80;;
579;SDS011;276;48.392;9.950;2023-11-19T04:25:53;3.83;;;3.53;;
579;SDS011;276;48.392;9.950;2023-11-19T04:28:24;4.00;;;3.70;;
579;SDS011;276;48.392;9.950;2023-11-19T04:30:52;4.20;;;3.90;;
579;SDS011;276;48.392;9.950;2023-11-19T04:33:17;4.00;;;3.60;;
579;SDS011;276;48.392;9.950;2023-11-19T04:35:43;4.70;;;4.40;;
579;SDS011;276;48.392;9.950;2023-11-19T04:38:13;4.60;;;4.27;;
579;SDS011;276;48.392;9.950;2023-11-19T04:40:41;4.47;;;4.17;;
579;SDS011;276;48.392;9.950;2023-11-19T04:43:11;6.03;;;5.53;;
579;SDS011;276;48.392;9.950;2023-11-19T04:45:38;5.73;;;5.20;;
579;SDS011;276;48.392;9.950;2023-11-19T04:48:04;7.00;;;6.50;;
579;SDS011;276;48.392;9.950;2023-11-19T04:50:33;6.87;;;6.33;;
579;SDS011;276;48.392;9.950;2023-11-19T04:53:03;7.47;;;6.87;;
579;SDS011;276;48.392;9.950;2023-11-19T04:55:30;7.30;;;6.60;;
579;SDS011;276;48.392;9.950;2023-11-19T04:57:58;7.53;;;6.93;;
579;SDS011;276;48.392;9.950;2023-11-19T05:00:26;8.37;;;7.57;;
579;SDS011;276;48.392;9.950;2023-11-19T05:02:51;8.57;;;7.67;;
579;SDS011;276;48.392;9.950;2023-11-19T05:05:19;8.80;;;8.10;;
579;SDS011;276;48.392;9.950;2023-11-19T05:07:47;7.63;;;6.83;;
579;SDS011;276;48.392;9.950;2023-11-19T05:10:15;7.80;;;7.23;;
579;SDS011;276;48.392;9.950;2023-11-19T05:12:43;7.97;;;7.27;;
579;SDS011;276;48.392;9.950;2023-11-19T05:15:11;8.10;;;7.10;;
579;SDS011;276;48.392;9.950;2023-11-19T05:17:40;7.33;;;6.73;;
579;SDS011;276;48.392;9.950;2023-11-19T05:20:08;8.50;;;7.80;;
579;SDS011;276;48.392;9.950;2023-11-19T05:22:41;7.70;;;7.17;;
579;SDS011;276;48.392;9.950;2023-11-19T05:25:08;8.10;;;7.50;;
579;SDS011;276;48.392;9.950;2023-11-19T05:27:37;8.73;;;8.03;;
579;SDS011;276;48.392;9.950;2023-11-19T05:30:04;7.30;;;6.80;;
579;SDS011;276;48.392;9.950;2023-11-19T05:32:34;9.30;;;8.60;;
579;SDS011;276;48.392;9.950;2023-11-19T05:35:02;8.93;;;8.33;;
579;SDS011;276;48.392;9.950;2023-11-19T05:37:28;7.73;;;7.03;;
579;SDS011;276;48.392;9.950;2023-11-19T05:39:53;8.60;;;7.90;;
579;SDS011;276;48.392;9.950;2023-11-19T05:42:25;9.20;;;8.50;;
579;SDS011;276;48.392;9.950;2023-11-19T05:44:52;8.50;;;7.80;;
579;SDS011;276;48.392;9.950;2023-11-19T05:47:25;9.30;;;8.60;;
579;SDS011;276;48.392;9.950;2023-11-19T05:49:51;9.87;;;8.60;;
579;SDS011;276;48.392;9.950;2023-11-19T05:52:16;7.50;;;6.80;;
579;SDS011;276;48.392;9.950;2023-11-19T05:54:44;6.80;;;6.20;;
579;SDS011;276;48.392;9.950;2023-11-19T05:57:16;9.00;;;8.30;;
579;SDS011;276;48.392;9.950;2023-11-19T05:59:50;7.77;;;7.13;;
579;SDS011;276;48.392;9.950;2023-11-19T06:02:16;7.23;;;6.70;;
579;SDS011;276;48.392;9.950;2023-11-19T06:04:46;7.70;;;7.07;;
579;SDS011;276;48.392;9.950;2023-11-19T06:07:14;7.37;;;6.77;;
579;SDS011;276;48.392;9.950;2023-11-19T06:09:40;7.83;;;7.33;;
579;SDS011;276;48.392;9.950;2023-11-19T06:12:08;6.70;;;6.20;;
579;SDS011;276;48.392;9.950;2023-11-19T06:14:37;6.60;;;6.10;;
579;SDS011;276;48.392;9.950;2023-11-19T06:17:02;6.80;;;6.30;;
579;SDS011;276;48.392;9.950;2023-11-19T06:19:29;7.30;;;6.80;;
579;SDS011;276;48.392;9.950;2023-11-19T06:21:58;6.90;;;6.40;;
579;SDS011;276;48.392;9.950;2023-11-19T06:24:25;7.47;;;6.90;;
579;SDS011;276;48.392;9.950;2023-11-19T06:26:51;6.40;;;5.93;;
579;SDS011;276;48.392;9.950;2023-11-19T06:29:17;7.07;;;6.57;;
579;SDS011;276;48.392;9.950;2023-11-19T06:31:44;6.87;;;6.37;;
579;SDS011;276;48.392;9.950;2023-11-19T06:34:10;6.13;;;5.73;;
579;SDS011;276;48.392;9.950;2023-11-19T06:36:36;6.07;;;5.57;;
579;SDS011;276;48.392;9.950;2023-11-19T06:39:05;7.37;;;6.77;;
579;SDS011;276;48.392;9.950;2023-11-19T06:41:31;6.47;;;5.90;;
579;SDS011;276;48.392;9.950;2023-11-19T06:43:58;6.83;;;6.23;;
579;SDS011;276;48.392;9.950;2023-11-19T06:46:27;7.43;;;6.83;;
579;SDS011;276;48.392;9.950;2023-11-19T06:48:57;7.97;;;7.30;;
579;SDS011;276;48.392;9.950;2023-11-19T06:51:23;7.47;;;6.77;;
579;SDS011;276;48.392;9.950;2023-11-19T06:53:50;6.77;;;6.27;;
579;SDS011;276;48.392;9.950;2023-11-19T06:56:23;7.80;;;7.10;;
579;SDS011;276;48.392;9.950;2023-11-19T06:58:49;7.23;;;6.57;;
579;SDS011;276;48.392;9.950;2023-11-19T07:01:16;8.30;;;7.60;;
579;SDS011;276;48.392;9.950;2023-11-19T07:03:49;6.80;;;6.30;;
579;SDS011;276;48.392;9.950;2023-11-19T07:06:16;7.57;;;6.97;;
579;SDS011;276;48.392;9.950;2023-11-19T07:08:42;8.53;;;6.87;;
579;SDS011;276;48.392;9.950;2023-11-19T07:11:09;7.93;;;7.23;;
579;SDS011;276;48.392;9.950;2023-11-19T07:13:36;8.60;;;7.77;;
579;SDS011;276;48.392;9.950;2023-11-19T07:16:05;7.87;;;7.27;;
579;SDS011;276;48.392;9.950;2023-11-19T07:18:31;9.63;;;8.83;;
579;SDS011;276;48.392;9.950;2023-11-19T07:21:00;8.90;;;8.20;;
579;SDS011;276;48.392;9.950;2023-11-19T07:23:28;8.47;;;7.77;;
579;SDS011;276;48.392;9.950;2023-11-19T07:25:54;8.73;;;8.00;;
579;SDS011;276;48.392;9.950;2023-11-19T07:28:19;7.60;;;6.90;;
579;SDS011;276;48.392;9.950;2023-11-19T07:30:47;8.10;;;7.50;;
579;SDS011;276;48.392;9.950;2023-11-19T07:33:20;8.70;;;8.00;;
579;SDS011;276;48.392;9.950;2023-11-19T07:35:46;8.20;;;7.60;;
579;SDS011;276;48.392;9.950;2023-11-19T07:38:11;8.17;;;7.57;;
579;SDS011;276;48.392;9.950;2023-11-19T07:40:39;9.70;;;8.80;;
579;SDS011;276;48.392;9.950;2023-11-19T07:43:07;8.27;;;7.57;;
579;SDS011;276;48.392;9.950;2023-11-19T07:45:35;9.30;;;8.50;;
579;SDS011;276;48.392;9.950;2023-11-19T07:48:01;7.37;;;6.80;;
579;SDS011;276;48.392;9.950;2023-11-19T07:50:26;8.67;;;7.87;;
579;SDS011;276;48.392;9.950;2023-11-19T07:52:52;8.53;;;7.83;;
579;SDS011;276;48.392;9.950;2023-11-19T07:55:18;8.70;;;8.00;;
579;SDS011;276;48.392;9.950;2023-11-19T07:57:46;8.30;;;7.60;;
579;SDS011;276;48.392;9.950;2023-11-19T08:00:14;8.13;;;7.53;;
579;SDS011;276;48.392;9.950;2023-11-19T08:02:40;7.80;;;7.20;;
579;SDS011;276;48.392;9.950;2023-11-19T08:05:06;8.50;;;7.73;;
579;SDS011;276;48.392;9.950;2023-11-19T08:07:31;8.23;;;7.53;;
579;SDS011;276;48.392;9.950;2023-11-19T08:09:57;9.50;;;8.70;;
579;SDS011;276;48.392;9.950;2023-11-19T08:12:25;9.73;;;9.00;;
579;SDS011;276;48.392;9.950;2023-11-19T08:14:53;7.47;;;6.87;;
579;SDS011;276;48.392;9.950;2023-11-19T08:17:19;7.07;;;6.57;;
579;SDS011;276;48.392;9.950;2023-11-19T08:19:47;8.10;;;7.50;;
579;SDS011;276;48.392;9.950;2023-11-19T08:22:15;7.77;;;7.17;;
579;SDS011;276;48.392;9.950;2023-11-19T08:24:44;7.90;;;7.20;;
579;SDS011;276;48.392;9.950;2023-11-19T08:27:12;8.17;;;7.57;;
579;SDS011;276;48.392;9.950;2023-11-19T08:29:42;7.53;;;6.93;;
579;SDS011;276;48.392;9.950;2023-11-19T08:32:08;7.43;;;6.90;;
579;SDS011;276;48.392;9.950;2023-11-19T08:34:33;7.83;;;7.13;;
579;SDS011;276;48.392;9.950;2023-11-19T08:37:04;7.73;;;7.13;;
579;SDS011;276;48.392;9.950;2023-11-19T08:39:31;6.83;;;6.33;;
579;SDS011;276;48.392;9.950;2023-11-19T08:41:56;8.47;;;7.30;;
579;SDS011;276;48.392;9.950;2023-11-19T08:44:27;8.33;;;7.63;;
579;SDS011;276;48.392;9.950;2023-11-19T08:46:55;7.37;;;6.77;;
579;SDS011;276;48.392;9.950;2023-11-19T08:49:23;7.17;;;6.67;;
579;SDS011;276;48.392;9.950;2023-11-19T08:51:48;7.47;;;6.87;;
579;SDS011;276;48.392;9.950;2023-11-19T08:54:14;7.07;;;6.47;;
579;SDS011;276;48.392;9.950;2023-11-19T08:56:42;7.70;;;7.10;;
579;SDS011;276;48.392;9.950;2023-11-19T08:59:10;8.53;;;7.73;;
579;SDS011;276;48.392;9.950;2023-11-19T09:01:38;8.03;;;7.33;;
579;SDS011;276;48.392;9.950;2023-11-19T09:04:04;8.13;;;7.43;;
579;SDS011;276;48.392;9.950;2023-11-19T09:06:29;8.07;;;7.27;;
579;SDS011;276;48.392;9.950;2023-11-19T09:09:00;8.13;;;7.33;;
579;SDS011;276;48.392;9.950;2023-11-19T09:11:28;7.97;;;7.27;;
579;SDS011;276;48.392;9.950;2023-11-19T09:13:58;7.27;;;6.67;;
579;SDS011;276;48.392;9.950;2023-11-19T09:16:23;7.33;;;6.73;;
579;SDS011;276;48.392;9.950;2023-11-19T09:18:50;6.80;;;6.30;;
579;SDS011;276;48.392;9.950;2023-11-19T09:21:18;7.00;;;6.37;;
579;SDS011;276;48.392;9.950;2023-11-19T09:23:46;6.70;;;6.20;;
579;SDS011;276;48.392;9.950;2023-11-19T09:26:13;6.83;;;6.23;;
579;SDS011;276;48.392;9.950;2023-11-19T09:28:41;6.83;;;6.17;;
579;SDS011;276;48.392;9.950;2023-11-19T09:31:13;7.20;;;6.70;;
579;SDS011;276;48.392;9.950;2023-11-19T09:33:47;6.90;;;6.27;;
579;SDS011;276;48.392;9.950;2023-11-19T09:36:17;6.13;;;5.63;;
579;SDS011;276;48.392;9.950;2023-11-19T09:38:48;5.77;;;5.27;;
579;SDS011;276;48.392;9.950;2023-11-19T09:41:13;5.50;;;5.10;;
579;SDS011;276;48.392;9.950;2023-11-19T09:43:42;5.53;;;5.03;;
579;SDS011;276;48.392;9.950;2023-11-19T09:46:13;5.17;;;4.77;;
579;SDS011;276;48.392;9.950;2023-11-19T09:48:42;6.33;;;5.83;;
579;SDS011;276;48.392;9.950;2023-11-19T09:51:10;5.50;;;4.70;;
579;SDS011;276;48.392;9.950;2023-11-19T09:53:37;6.73;;;5.27;;
579;SDS011;276;48.392;9.950;2023-11-19T09:56:04;5.77;;;5.20;;
579;SDS011;276;48.392;9.950;2023-11-19T09:58:32;4.80;;;4.40;;
579;SDS011;276;48.392;9.950;2023-11-19T10:01:01;4.53;;;4.23;;
579;SDS011;276;48.392;9.950;2023-11-19T10:03:35;4.60;;;4.20;;
579;SDS011;276;48.392;9.950;2023-11-19T10:06:08;4.10;;;3.80;;
579;SDS011;276;48.392;9.950;2023-11-19T10:08:36;4.87;;;4.47;;
579;SDS011;276;48.392;9.950;2023-11-19T10:11:05;4.47;;;4.17;;
579;SDS011;276;48.392;9.950;2023-11-19T10:13:37;4.90;;;4.50;;
579;SDS011;276;48.392;9.950;2023-11-19T10:16:04;4.77;;;4.37;;
579;SDS011;276;48.392;9.950;2023-11-19T10:18:33;4.17;;;3.87;;
579;SDS011;276;48.392;9.950;2023-11-19T10:21:07;4.70;;;4.40;;
579;SDS011;276;48.392;9.950;2023-11-19T10:23:59;5.63;;;5.17;;
579;SDS011;276;48.392;9.950;2023-11-19T10:26:25;3.70;;;3.50;;
579;SDS011;276;48.392;9.950;2023-11-19T10:28:52;4.77;;;4.47;;
579;SDS011;276;48.392;9.950;2023-11-19T10:31:19;4.60;;;4.20;;
579;SDS011;276;48.392;9.950;2023-11-19T10:33:49;4.07;;;3.77;;
579;SDS011;276;48.392;9.950;2023-11-19T10:36:20;4.97;;;4.47;;
579;SDS011;276;48.392;9.950;2023-11-19T10:38:51;3.97;;;3.67;;
579;SDS011;276;48.392;9.950;2023-11-19T10:41:29;3.30;;;3.10;;
579;SDS011;276;48.392;9.950;2023-11-19T10:43:55;3.77;;;3.47;;
579;SDS011;276;48.392;9.950;2023-11-19T10:46:21;2.80;;;2.60;;
579;SDS011;276;48.392;9.950;2023-11-19T10:48:50;3.10;;;2.90;;
579;SDS011;276;48.392;9.950;2023-11-19T10:51:21;3.30;;;3.07;;
579;SDS011;276;48.392;9.950;2023-11-19T10:53:47;2.90;;;2.70;;
579;SDS011;276;48.392;9.950;2023-11-19T10:56:15;2.20;;;2.10;;
579;SDS011;276;48.392;9.950;2023-11-19T10:58:45;2.47;;;2.37;;
579;SDS011;276;48.392;9.950;2023-11-19T11:01:21;2.97;;;2.23;;
579;SDS011;276;48.392;9.950;2023-11-19T11:03:55;1.97;;;1.87;;
579;SDS011;276;48.392;9.950;2023-11-19T11:06:23;2.60;;;2.40;;
579;SDS011;276;48.392;9.950;2023-11-19T11:08:51;1.87;;;1.77;;
579;SDS011;276;48.392;9.950;2023-11-19T11:11:16;2.33;;;2.00;;
579;SDS011;276;48.392;9.950;2023-11-19T11:13:46;2.37;;;2.17;;
579;SDS011;276;48.392;9.950;2023-11-19T11:16:18;2.20;;;2.00;;
579;SDS011;276;48.392;9.950;2023-11-19T11:18:46;1.60;;;1.50;;
579;SDS011;276;48.392;9.950;2023-11-19T11:21:17;1.60;;;1.50;;
579;SDS011;276;48.392;9.950;2023-11-19T11:37:46;1.93;;;1.83;;
579;SDS011;276;48.392;9.950;2023-11-19T11:40:15;2.17;;;2.07;;
579;SDS011;276;48.392;9.950;2023-11-19T11:42:48;2.20;;;2.00;;
579;SDS011;276;48.392;9.950;2023-11-19T11:45:16;3.30;;;3.10;;
579;SDS011;276;48.392;9.950;2023-11-19T11:50:18;1.90;;;1.80;;
579;SDS011;276;48.392;9.950;2023-11-19T11:57:56;2.37;;;2.27;;
579;SDS011;276;48.392;9.950;2023-11-19T12:00:31;2.60;;;2.40;;
579;SDS011;276;48.392;9.950;2023-11-19T12:03:02;2.20;;;2.10;;
579;SDS011;276;48.392;9.950;2023-11-19T12:05:32;2.50;;;2.30;;
579;SDS011;276;48.392;9.950;2023-11-19T12:08:02;2.73;;;2.53;;
579;SDS011;276;48.392;9.950;2023-11-19T12:10:31;2.90;;;2.10;;
579;SDS011;276;48.392;9.950;2023-11-19T12:13:04;2.53;;;2.33;;
579;SDS011;276;48.392;9.950;2023-11-19T12:15:32;3.80;;;2.43;;
579;SDS011;276;48.392;9.950;2023-11-19T12:17:58;3.90;;;2.53;;
579;SDS011;276;48.392;9.950;2023-11-19T12:20:26;1.87;;;1.70;;
579;SDS011;276;48.392;9.950;2023-11-19T12:22:56;1.90;;;1.80;;
579;SDS011;276;48.392;9.950;2023-11-19T12:25:22;1.57;;;1.47;;
579;SDS011;276;48.392;9.950;2023-11-19T12:27:50;1.77;;;1.37;;
579;SDS011;276;48.392;9.950;2023-11-19T12:30:26;2.07;;;1.87;;
579;SDS011;276;48.392;9.950;2023-11-19T12:32:57;1.47;;;1.30;;
579;SDS011;276;48.392;9.950;2023-11-19T12:35:22;1.53;;;1.43;;
579;SDS011;276;48.392;9.950;2023-11-19T12:37:49;1.40;;;1.30;;
579;SDS011;276;48.392;9.950;2023-11-19T12:40:18;1.20;;;1.10;;
579;SDS011;276;48.392;9.950;2023-11-19T12:42:49;1.93;;;1.83;;
579;SDS011;276;48.392;9.950;2023-11-19T12:45:18;1.70;;;1.40;;
579;SDS011;276;48.392;9.950;2023-11-19T12:47:48;1.50;;;1.40;;
579;SDS011;276;48.392;9.950;2023-11-19T12:50:17;5.07;;;1.40;;
579;SDS011;276;48.392;9.950;2023-11-19T12:52:54;1.67;;;1.57;;
579;SDS011;276;48.392;9.950;2023-11-19T12:55:24;1.83;;;1.53;;
579;SDS011;276;48.392;9.950;2023-11-19T12:57:51;4.67;;;1.20;;
579;SDS011;276;48.392;9.950;2023-11-19T13:00:20;1.60;;;1.50;;
579;SDS011;276;48.392;9.950;2023-11-19T13:02:55;1.83;;;1.67;;
579;SDS011;276;48.392;9.950;2023-11-19T13:10:31;1.30;;;1.20;;
579;SDS011;276;48.392;9.950;2023-11-19T13:15:33;1.40;;;1.30;;
579;SDS011;276;48.392;9.950;2023-11-19T13:18:00;1.57;;;1.47;;
579;SDS011;276;48.392;9.950;2023-11-19T13:20:27;2.00;;;1.43;;
579;SDS011;276;48.392;9.950;2023-11-19T13:22:55;1.50;;;1.40;;
579;SDS011;276;48.392;9.950;2023-11-19T13:25:25;3.10;;;1.63;;
579;SDS011;276;48.392;9.950;2023-11-19T13:27:51;1.70;;;1.20;;
579;SDS011;276;48.392;9.950;2023-11-19T13:30:20;1.10;;;1.10;;
579;SDS011;276;48.392;9.950;2023-11-19T13:32:51;6.10;;;1.40;;
579;SDS011;276;48.392;9.950;2023-11-19T13:35:19;1.40;;;1.30;;
579;SDS011;276;48.392;9.950;2023-11-19T13:37:45;4.93;;;2.17;;
579;SDS011;276;48.392;9.950;2023-11-19T13:40:14;1.93;;;1.33;;
579;SDS011;276;48.392;9.950;2023-11-19T13:42:43;1.00;;;1.00;;
579;SDS011;276;48.392;9.950;2023-11-19T13:45:14;1.43;;;1.33;;
579;SDS011;276;48.392;9.950;2023-11-19T13:47:45;1.30;;;1.13;;
579;SDS011;276;48.392;9.950;2023-11-19T13:50:12;1.30;;;1.20;;
579;SDS011;276;48.392;9.950;2023-11-19T13:52:39;1.50;;;1.40;;
579;SDS011;276;48.392;9.950;2023-11-19T13:55:08;1.33;;;1.23;;
579;SDS011;276;48.392;9.950;2023-11-19T13:57:37;1.17;;;1.10;;
579;SDS011;276;48.392;9.950;2023-11-19T14:00:03;2.30;;;1.30;;
579;SDS011;276;48.392;9.950;2023-11-19T14:02:41;1.63;;;1.53;;
579;SDS011;276;48.392;9.950;2023-11-19T14:05:10;2.90;;;1.00;;
579;SDS011;276;48.392;9.950;2023-11-19T14:07:36;2.73;;;1.10;;
579;SDS011;276;48.392;9.950;2023-11-19T14:10:05;1.57;;;1.37;;
579;SDS011;276;48.392;9.950;2023-11-19T14:12:34;1.10;;;0.90;;
579;SDS011;276;48.392;9.950;2023-11-19T14:15:01;2.50;;;1.23;;
579;SDS011;276;48.392;9.950;2023-11-19T14:17:30;1.43;;;1.07;;
579;SDS011;276;48.392;9.950;2023-11-19T14:19:56;2.73;;;1.10;;
579;SDS011;276;48.392;9.950;2023-11-19T14:22:24;1.10;;;1.00;;
579;SDS011;276;48.392;9.950;2023-11-19T14:24:50;0.70;;;0.70;;
579;SDS011;276;48.392;9.950;2023-11-19T14:27:18;0.90;;;0.90;;
579;SDS011;276;48.392;9.950;2023-11-19T14:29:44;1.07;;;0.97;;
579;SDS011;276;48.392;9.950;2023-11-19T14:32:10;0.87;;;0.83;;
579;SDS011;276;48.392;9.950;2023-11-19T14:34:38;0.90;;;0.90;;
579;SDS011;276;48.392;9.950;2023-11-19T14:37:08;1.00;;;0.80;;
579;SDS011;276;48.392;9.950;2023-11-19T14:39:34;1.37;;;1.23;;
579;SDS011;276;48.392;9.950;2023-11-19T14:42:02;1.00;;;1.00;;
579;SDS011;276;48.392;9.950;2023-11-19T14:44:30;1.13;;;0.90;;
579;SDS011;276;48.392;9.950;2023-11-19T14:46:58;1.60;;;1.50;;
579;SDS011;276;48.392;9.950;2023-11-19T14:49:24;1.17;;;0.90;;
579;SDS011;276;48.392;9.950;2023-11-19T14:51:50;1.30;;;1.20;;
579;SDS011;276;48.392;9.950;2023-11-19T14:54:16;1.47;;;1.37;;
579;SDS011;276;48.392;9.950;2023-11-19T14:56:46;1.90;;;1.57;;
579;SDS011;276;48.392;9.950;2023-11-19T14:59:12;1.63;;;1.53;;
579;SDS011;276;48.392;9.950;2023-11-19T15:01:40;1.37;;;1.27;;
579;SDS011;276;48.392;9.950;2023-11-19T15:04:05;1.50;;;1.40;;
579;SDS011;276;48.392;9.950;2023-11-19T15:06:31;1.53;;;1.43;;
579;SDS011;276;48.392;9.950;2023-11-19T15:08:59;1.70;;;1.60;;
579;SDS011;276;48.392;9.950;2023-11-19T15:11:25;3.37;;;1.77;;
579;SDS011;276;48.392;9.950;2023-11-19T15:13:50;1.50;;;1.40;;
579;SDS011;276;48.392;9.950;2023-11-19T15:16:18;1.50;;;1.30;;
579;SDS011;276;48.392;9.950;2023-11-19T15:18:50;1.23;;;1.13;;
579;SDS011;276;48.392;9.950;2023-11-19T15:21:19;1.27;;;1.17;;
579;SDS011;276;48.392;9.950;2023-11-19T15:23:46;2.27;;;1.73;;
579;SDS011;276;48.392;9.950;2023-11-19T15:26:14;1.27;;;1.23;;
579;SDS011;276;48.392;9.950;2023-11-19T15:28:42;1.20;;;1.20;;
579;SDS011;276;48.392;9.950;2023-11-19T15:31:10;3.80;;;1.80;;
579;SDS011;276;48.392;9.950;2023-11-19T15:33:41;1.40;;;1.30;;
579;SDS011;276;48.392;9.950;2023-11-19T15:36:07;1.53;;;1.43;;
579;SDS011;276;48.392;9.950;2023-11-19T15:38:36;1.27;;;1.27;;
579;SDS011;276;48.392;9.950;2023-11-19T15:41:02;1.10;;;1.10;;
579;SDS011;276;48.392;9.950;2023-11-19T15:43:27;1.97;;;1.30;;
579;SDS011;276;48.392;9.950;2023-11-19T15:45:54;1.43;;;1.20;;
579;SDS011;276;48.392;9.950;2023-11-19T15:48:20;1.50;;;1.20;;
579;SDS011;276;48.392;9.950;2023-11-19T15:50:52;1.30;;;1.20;;
579;SDS011;276;48.392;9.950;2023-11-19T15:53:18;1.30;;;1.20;;
579;SDS011;276;48.392;9.950;2023-11-19T15:55:48;2.17;;;1.40;;
579;SDS011;276;48.392;9.950;2023-11-19T15:58:17;1.60;;;1.17;;
579;SDS011;276;48.392;9.950;2023-11-19T16:00:43;1.07;;;1.00;;
579;SDS011;276;48.392;9.950;2023-11-19T16:03:12;0.90;;;0.90;;
579;SDS011;276;48.392;9.950;2023-11-19T16:05:40;1.20;;;1.10;;
579;SDS011;276;48.392;9.950;2023-11-19T16:08:06;1.43;;;1.33;;
579;SDS011;276;48.392;9.950;2023-11-19T16:10:37;1.10;;;1.00;;
579;SDS011;276;48.392;9.950;2023-11-19T16:13:12;0.70;;;0.70;;
579;SDS011;276;48.392;9.950;2023-11-19T16:15:37;1.20;;;1.10;;
579;SDS011;276;48.392;9.950;2023-11-19T16:18:05;1.10;;;1.00;;
579;SDS011;276;48.392;9.950;2023-11-19T16:20:34;1.40;;;1.30;;